Accueil
METAR-TAF:

METAR-TAF

Aéroports :

Morrisville-Stowe State Airport

Morrisville, Vermont, États-Unis

latitude: 44-32-10N, longitude: 072-36-58W, altitude: 223 m

Observation

Le bulletin a été fait il y a 29 minutes, à 08:11 UTC
Vent 8 kt de nord
Température -2°C
Humidité 86%
Pression 1018 hPa
Visibilité: 2.0 km
Nuages épars à une hauteur de 1100 ft
Nuages fragmentés à une hauteur de 1700 ft
Ciel couvert à une hauteur de 3400 ft
neige faible, brume

METAR: KMVL 170811Z AUTO 35008KT 1 1/4SM -SN BR SCT011 BKN017 OVC034 M02/M04 A3005 RMK AO2 P0000 T10171039

Heure: 03:40 (08:40 UTC)


TAF: absent

Observations et prévisions météorologiques de plus de 4000 aéroports (messages METAR et TAF).

Les stations disponibles sont représentées par des disques jaunes et rouges sur la carte.

Passer la souris dessus pour voir le nom de la station.

Cliquer dessus pour voir les observations et prévisions météorologiques.

Pour changer de carte: cliquez sur les boutons verts avec une croix noire pour zoomer, sur le bouton vert avec un tiret pour effectuer un zoom arrière, ou sur les flèches vertes pour les cartes adjacentes.


METAR-TAF: